createdAt,value
2023-03-06T00:00:43.974Z,65.99
2023-03-06T00:01:23.809Z,65.75
2023-03-06T00:01:57.337Z,65.77
2023-03-06T00:02:30.914Z,65.90
2023-03-06T00:03:05.157Z,65.82
2023-03-06T00:03:39.007Z,66.00
2023-03-06T00:04:13.390Z,65.92
2023-03-06T00:04:47.447Z,65.89
2023-03-06T00:05:30.237Z,65.81
2023-03-06T00:06:03.966Z,65.78
2023-03-06T00:06:37.597Z,65.92
2023-03-06T00:07:11.188Z,65.74
2023-03-06T00:07:44.847Z,65.89
2023-03-06T00:08:18.525Z,65.80
2023-03-06T00:08:52.267Z,65.73
2023-03-06T00:09:26.164Z,65.71
2023-03-06T00:09:59.713Z,65.90
2023-03-06T00:10:33.839Z,66.09
2023-03-06T00:11:07.461Z,65.88
2023-03-06T00:11:41.067Z,65.79
2023-03-06T00:12:14.559Z,65.85
2023-03-06T00:12:48.177Z,65.98
2023-03-06T00:13:22.388Z,65.96
2023-03-06T00:13:56.208Z,66.01
2023-03-06T00:14:29.888Z,65.74
2023-03-06T00:15:05.635Z,66.01
2023-03-06T00:15:39.639Z,66.09
2023-03-06T00:16:13.771Z,66.10
2023-03-06T00:16:47.405Z,65.81
2023-03-06T00:17:23.885Z,65.93
2023-03-06T00:17:58.243Z,66.09
2023-03-06T00:18:31.779Z,66.06
2023-03-06T00:19:05.467Z,65.97
2023-03-06T00:19:39.380Z,65.61
2023-03-06T00:20:13.765Z,65.88
2023-03-06T00:20:47.229Z,65.78
2023-03-06T00:21:21.234Z,65.76
2023-03-06T00:21:55.044Z,65.88
2023-03-06T00:22:28.648Z,65.77
2023-03-06T00:23:02.327Z,65.86
2023-03-06T00:23:36.613Z,65.81
2023-03-06T00:24:10.216Z,65.96
2023-03-06T00:24:45.218Z,66.02
2023-03-06T00:25:27.443Z,66.08
2023-03-06T00:26:10.967Z,65.94
2023-03-06T00:26:44.958Z,66.09
2023-03-06T00:27:18.444Z,66.17
2023-03-06T00:27:52.591Z,65.97
2023-03-06T00:28:26.491Z,65.89
2023-03-06T00:29:02.709Z,66.04
2023-03-06T00:29:36.780Z,66.03
2023-03-06T00:30:16.031Z,66.28
2023-03-06T00:30:49.768Z,66.12
2023-03-06T00:31:23.396Z,66.16
2023-03-06T00:31:56.953Z,66.23
2023-03-06T00:32:30.519Z,66.50
2023-03-06T00:33:04.334Z,66.43
2023-03-06T00:33:37.993Z,66.26
2023-03-06T00:34:11.679Z,66.32
2023-03-06T00:34:50.308Z,66.11
2023-03-06T00:35:24.171Z,66.26
2023-03-06T00:35:57.913Z,66.08
2023-03-06T00:36:34.222Z,66.24
2023-03-06T00:37:08.233Z,66.16
2023-03-06T00:37:42.229Z,66.29
2023-03-06T00:38:17.980Z,66.17
2023-03-06T00:38:57.096Z,66.16
2023-03-06T00:39:31.903Z,66.02
2023-03-06T00:40:07.264Z,66.21
2023-03-06T00:40:41.008Z,66.41
2023-03-06T00:41:14.760Z,66.43
2023-03-06T00:41:48.330Z,66.31
2023-03-06T00:42:22.020Z,66.52
2023-03-06T00:42:58.275Z,66.10
2023-03-06T00:43:32.082Z,66.21
2023-03-06T00:44:05.853Z,66.29
2023-03-06T00:44:39.591Z,65.93
2023-03-06T00:45:13.838Z,66.10
2023-03-06T00:45:47.414Z,66.12
2023-03-06T00:46:21.737Z,66.06
2023-03-06T00:46:55.514Z,65.76
2023-03-06T00:47:30.753Z,65.62
2023-03-06T00:48:05.450Z,65.57
2023-03-06T00:48:39.307Z,65.98
2023-03-06T00:49:12.955Z,65.98
2023-03-06T00:49:47.110Z,66.33
2023-03-06T00:50:21.249Z,66.23
2023-03-06T00:50:54.824Z,66.33
2023-03-06T00:51:28.402Z,66.33
2023-03-06T00:52:01.909Z,66.20
2023-03-06T00:52:35.840Z,66.15
2023-03-06T00:53:11.289Z,66.13
2023-03-06T00:53:44.982Z,66.43
2023-03-06T00:54:19.249Z,66.28
2023-03-06T00:54:52.980Z,66.64
2023-03-06T00:55:26.845Z,66.43
2023-03-06T00:56:00.449Z,66.45
2023-03-06T00:56:37.262Z,66.42
2023-03-06T00:57:10.964Z,66.32
2023-03-06T00:57:44.781Z,66.65
2023-03-06T00:58:19.324Z,66.66
2023-03-06T00:58:56.214Z,66.50
2023-03-06T00:59:32.426Z,66.44
2023-03-06T01:00:07.932Z,66.78
2023-03-06T01:00:41.672Z,66.74
2023-03-06T01:01:15.280Z,66.80
2023-03-06T01:01:48.996Z,66.50
2023-03-06T01:02:23.035Z,66.76
2023-03-06T01:02:56.813Z,66.59
2023-03-06T01:03:32.894Z,66.63
2023-03-06T01:04:06.672Z,66.53
2023-03-06T01:04:40.562Z,66.55
2023-03-06T01:05:14.769Z,66.81
2023-03-06T01:05:48.283Z,66.48
2023-03-06T01:06:21.862Z,66.79
2023-03-06T01:06:55.482Z,66.49
2023-03-06T01:07:33.662Z,66.38
2023-03-06T01:08:09.016Z,66.47
2023-03-06T01:08:42.750Z,66.60
2023-03-06T01:09:17.100Z,66.66
2023-03-06T01:09:54.810Z,66.41
2023-03-06T01:10:29.704Z,66.64
2023-03-06T01:11:03.419Z,66.68
2023-03-06T01:11:37.190Z,66.65
2023-03-06T01:12:10.911Z,66.67
2023-03-06T01:12:45.659Z,66.70
2023-03-06T01:13:19.434Z,66.62
2023-03-06T01:13:53.014Z,66.64
2023-03-06T01:14:27.300Z,66.84
2023-03-06T01:15:00.969Z,66.70
2023-03-06T01:15:35.858Z,66.81
2023-03-06T01:16:12.561Z,66.65
2023-03-06T01:16:46.992Z,66.77
2023-03-06T01:17:20.803Z,66.68
2023-03-06T01:17:56.890Z,66.67
2023-03-06T01:18:32.614Z,66.88
2023-03-06T01:19:06.446Z,66.65
2023-03-06T01:19:40.180Z,66.82
2023-03-06T01:20:17.701Z,66.81
2023-03-06T01:20:53.103Z,66.74
2023-03-06T01:21:26.789Z,66.85
2023-03-06T01:22:02.557Z,66.74
2023-03-06T01:22:36.315Z,66.78
2023-03-06T01:23:09.850Z,66.69
2023-03-06T01:23:43.542Z,66.75
2023-03-06T01:24:17.190Z,66.69
2023-03-06T01:24:51.013Z,66.54
2023-03-06T01:25:25.286Z,66.92
2023-03-06T01:25:59.316Z,66.80
2023-03-06T01:26:33.743Z,66.59
2023-03-06T01:27:07.432Z,66.51
2023-03-06T01:27:41.049Z,66.65
2023-03-06T01:28:16.998Z,66.62
2023-03-06T01:28:52.784Z,66.20
2023-03-06T01:29:26.693Z,66.25
2023-03-06T01:30:00.370Z,66.28
2023-03-06T01:30:34.134Z,66.23
2023-03-06T01:31:09.646Z,66.44
2023-03-06T01:31:43.372Z,66.37
2023-03-06T01:32:17.420Z,66.67
2023-03-06T01:32:51.285Z,66.76
2023-03-06T01:33:24.776Z,66.66
2023-03-06T01:33:58.350Z,66.49
2023-03-06T01:34:31.912Z,66.73
2023-03-06T01:35:06.705Z,66.85
2023-03-06T01:35:40.672Z,66.66
2023-03-06T01:36:14.388Z,66.80
2023-03-06T01:36:48.023Z,66.66
2023-03-06T01:37:22.169Z,66.68
2023-03-06T01:37:55.688Z,66.82
2023-03-06T01:38:29.294Z,66.85
2023-03-06T01:39:04.129Z,66.74
2023-03-06T01:39:37.676Z,66.68
2023-03-06T01:40:13.321Z,66.83
2023-03-06T01:40:46.960Z,66.55
2023-03-06T01:41:21.784Z,66.66
2023-03-06T01:41:55.328Z,66.72
2023-03-06T01:42:28.838Z,66.59
2023-03-06T01:43:34.746Z,66.74
2023-03-06T01:44:10.354Z,66.55
2023-03-06T01:44:58.880Z,66.53
2023-03-06T01:45:35.415Z,66.69
2023-03-06T01:46:42.691Z,66.53
2023-03-06T01:47:16.115Z,66.39
2023-03-06T01:47:49.878Z,66.66
2023-03-06T01:48:25.247Z,66.77
2023-03-06T01:49:18.999Z,66.54
2023-03-06T01:49:53.678Z,66.58
2023-03-06T01:50:27.299Z,66.61
2023-03-06T01:51:00.815Z,66.70
2023-03-06T01:52:03.458Z,66.74
2023-03-06T01:52:44.836Z,66.88
2023-03-06T01:53:18.858Z,66.79
2023-03-06T01:53:56.511Z,66.99
2023-03-06T01:54:34.786Z,67.05
2023-03-06T01:55:19.813Z,67.11
2023-03-06T01:55:53.387Z,67.08
2023-03-06T01:56:29.159Z,67.10
2023-03-06T01:57:15.613Z,67.01
2023-03-06T01:57:55.351Z,67.20
2023-03-06T01:58:29.179Z,67.00
2023-03-06T01:59:03.405Z,67.15
2023-03-06T01:59:38.654Z,67.16
2023-03-06T02:00:16.363Z,67.15
2023-03-06T02:00:49.886Z,67.17
2023-03-06T02:01:23.908Z,67.05
2023-03-06T02:02:02.018Z,66.89
2023-03-06T02:02:36.412Z,66.73
2023-03-06T02:03:16.096Z,67.05
2023-03-06T02:03:50.636Z,67.02
2023-03-06T02:04:25.570Z,66.95
2023-03-06T02:05:00.168Z,66.61
2023-03-06T02:05:34.262Z,66.54
2023-03-06T02:06:10.553Z,66.48
2023-03-06T02:06:44.352Z,66.52
2023-03-06T02:07:21.043Z,66.63
2023-03-06T02:07:55.151Z,66.80
2023-03-06T02:08:30.470Z,66.92
2023-03-06T02:09:05.259Z,66.92
2023-03-06T02:09:39.113Z,66.69
2023-03-06T02:10:14.061Z,66.90
2023-03-06T02:11:36.714Z,66.86
2023-03-06T02:12:13.591Z,67.05
2023-03-06T02:12:49.778Z,66.97
2023-03-06T02:13:25.007Z,66.89
2023-03-06T02:13:58.994Z,66.96
2023-03-06T02:14:32.693Z,66.96
2023-03-06T02:15:06.783Z,67.24
2023-03-06T02:15:40.326Z,67.04
2023-03-06T02:16:15.240Z,67.09
2023-03-06T02:16:48.943Z,67.02
2023-03-06T02:17:23.938Z,66.96
2023-03-06T02:17:57.835Z,67.01
2023-03-06T02:18:31.562Z,67.12
2023-03-06T02:19:09.319Z,67.08
2023-03-06T02:19:45.851Z,67.03
2023-03-06T02:20:34.153Z,66.91
2023-03-06T02:21:10.678Z,67.09
2023-03-06T02:21:44.503Z,66.94
2023-03-06T02:22:18.145Z,66.85
2023-03-06T02:23:03.273Z,66.66
2023-03-06T02:24:03.389Z,66.69
2023-03-06T02:24:42.913Z,66.66
2023-03-06T02:25:38.237Z,66.56
2023-03-06T02:26:12.887Z,66.63
2023-03-06T02:26:48.184Z,66.67
2023-03-06T02:27:24.579Z,66.81
2023-03-06T02:27:59.146Z,66.92
2023-03-06T02:28:32.866Z,67.11
2023-03-06T02:29:08.788Z,66.89
2023-03-06T02:29:42.790Z,66.95
2023-03-06T02:30:18.124Z,66.93
2023-03-06T02:30:54.182Z,66.96
2023-03-06T02:31:31.336Z,67.08
2023-03-06T02:32:06.018Z,66.77
2023-03-06T02:32:39.649Z,67.05
2023-03-06T02:33:19.321Z,66.84
2023-03-06T02:34:03.525Z,66.93
2023-03-06T02:34:39.575Z,67.06
2023-03-06T02:35:20.645Z,66.94
2023-03-06T02:36:00.780Z,66.79
2023-03-06T02:36:41.998Z,66.95
2023-03-06T02:37:15.536Z,67.08
2023-03-06T02:37:49.763Z,67.03
2023-03-06T02:38:29.591Z,67.09
2023-03-06T02:39:04.975Z,66.78
2023-03-06T02:39:43.198Z,66.85
2023-03-06T02:40:19.031Z,66.79
2023-03-06T02:40:53.285Z,67.12
2023-03-06T02:41:26.932Z,66.94
2023-03-06T02:42:00.571Z,66.85
2023-03-06T02:42:35.447Z,66.88
2023-03-06T02:43:11.304Z,66.84
2023-03-06T02:43:47.842Z,67.01
2023-03-06T02:44:22.303Z,66.92
2023-03-06T02:44:57.545Z,66.91
2023-03-06T02:45:39.570Z,67.07
2023-03-06T02:46:13.292Z,66.96
2023-03-06T02:46:46.953Z,67.00
2023-03-06T02:47:20.789Z,66.98
2023-03-06T02:47:54.470Z,66.93
2023-03-06T02:48:28.123Z,66.92
2023-03-06T02:50:44.979Z,66.60
2023-03-06T02:51:18.600Z,66.73
2023-03-06T02:51:52.201Z,66.95
2023-03-06T02:52:25.842Z,66.92
2023-03-06T02:52:59.534Z,66.95
2023-03-06T02:53:33.023Z,66.88
2023-03-06T02:54:06.648Z,67.04
2023-03-06T02:54:40.163Z,66.87
2023-03-06T02:55:14.228Z,66.95
2023-03-06T02:55:50.095Z,66.91
2023-03-06T02:56:23.760Z,67.17
2023-03-06T02:56:57.315Z,67.06
2023-03-06T02:57:31.804Z,67.05
2023-03-06T02:58:06.322Z,67.14
2023-03-06T02:58:39.866Z,67.17
2023-03-06T02:59:13.479Z,66.87
2023-03-06T02:59:47.053Z,67.04
2023-03-06T03:00:21.056Z,66.88
2023-03-06T03:00:55.087Z,66.79
2023-03-06T03:01:28.852Z,67.10
2023-03-06T03:02:02.590Z,66.86
2023-03-06T03:02:36.558Z,66.97
2023-03-06T03:03:10.316Z,67.03
2023-03-06T03:03:44.311Z,67.03
2023-03-06T03:04:18.064Z,67.00
2023-03-06T03:04:52.475Z,67.06
2023-03-06T03:05:26.636Z,66.84
2023-03-06T03:06:08.558Z,66.92
2023-03-06T03:06:48.095Z,66.75
2023-03-06T03:07:21.721Z,66.55
2023-03-06T03:07:55.740Z,66.95
2023-03-06T03:08:29.568Z,66.64
2023-03-06T03:09:05.638Z,66.73
2023-03-06T03:09:39.272Z,66.70
2023-03-06T03:10:13.678Z,66.74
2023-03-06T03:10:47.946Z,66.71
2023-03-06T03:11:21.716Z,66.86
2023-03-06T03:11:55.518Z,66.83
2023-03-06T03:12:30.541Z,66.83
2023-03-06T03:13:04.141Z,66.88
2023-03-06T03:13:37.852Z,66.85
2023-03-06T03:14:11.464Z,66.87
2023-03-06T03:14:44.771Z,66.81
2023-03-06T03:15:19.320Z,67.03
2023-03-06T03:16:07.101Z,67.09
2023-03-06T03:16:40.593Z,66.89
2023-03-06T03:17:14.234Z,66.99
2023-03-06T03:17:47.820Z,66.85
2023-03-06T03:18:21.545Z,66.86
2023-03-06T03:18:55.177Z,67.13
2023-03-06T03:19:29.009Z,66.87
2023-03-06T03:20:04.684Z,66.83
2023-03-06T03:20:42.403Z,66.77
2023-03-06T03:21:16.197Z,67.05
2023-03-06T03:21:50.833Z,67.14
2023-03-06T03:22:27.277Z,66.95
2023-03-06T03:23:00.963Z,66.94
2023-03-06T03:23:34.747Z,66.75
2023-03-06T03:24:09.216Z,66.82
2023-03-06T03:24:42.819Z,67.04
2023-03-06T03:25:16.694Z,66.81
2023-03-06T03:25:50.952Z,66.67
2023-03-06T03:26:24.530Z,66.72
2023-03-06T03:27:05.893Z,66.74
2023-03-06T03:27:39.458Z,66.88
2023-03-06T03:28:13.028Z,66.70
2023-03-06T03:28:46.650Z,67.04
2023-03-06T03:29:22.475Z,66.86
2023-03-06T03:29:59.949Z,66.82
2023-03-06T03:30:33.612Z,66.87
2023-03-06T03:31:10.125Z,66.85
2023-03-06T03:31:43.690Z,66.82
2023-03-06T03:32:17.382Z,66.90
2023-03-06T03:32:51.070Z,67.14
2023-03-06T03:33:24.678Z,66.89
2023-03-06T03:33:58.296Z,66.96
2023-03-06T03:34:32.369Z,66.87
2023-03-06T03:35:07.934Z,66.95
2023-03-06T03:35:44.138Z,67.00
2023-03-06T03:36:17.727Z,66.88
2023-03-06T03:36:52.383Z,66.90
2023-03-06T03:37:25.907Z,66.75
2023-03-06T03:38:01.278Z,66.84
2023-03-06T03:38:35.455Z,66.54
2023-03-06T03:39:09.107Z,66.55
2023-03-06T03:39:42.750Z,66.75
2023-03-06T03:40:16.451Z,66.84
2023-03-06T03:40:50.041Z,66.93
2023-03-06T03:41:24.167Z,66.56
2023-03-06T03:41:57.981Z,66.86
2023-03-06T03:42:31.503Z,66.69
2023-03-06T03:43:07.325Z,66.70
2023-03-06T03:43:40.923Z,66.81
2023-03-06T03:44:15.275Z,66.94
2023-03-06T03:44:49.124Z,66.81
2023-03-06T03:45:22.783Z,66.80
2023-03-06T03:45:56.251Z,66.74
2023-03-06T03:46:30.245Z,66.91
2023-03-06T03:47:04.151Z,66.70
2023-03-06T03:47:37.957Z,66.99
2023-03-06T03:48:12.481Z,67.05
2023-03-06T03:48:46.211Z,66.90
2023-03-06T03:49:19.949Z,66.96
2023-03-06T03:49:53.847Z,66.99
2023-03-06T03:50:27.834Z,66.86
2023-03-06T03:51:13.970Z,66.79
2023-03-06T03:51:51.007Z,66.90
2023-03-06T03:52:25.007Z,66.85
2023-03-06T03:52:58.693Z,66.83
2023-03-06T03:53:32.401Z,66.74
2023-03-06T03:54:07.122Z,66.94
2023-03-06T03:54:44.688Z,66.60
2023-03-06T03:55:18.464Z,66.90
2023-03-06T03:55:52.131Z,66.87
2023-03-06T03:56:26.987Z,66.86
2023-03-06T03:57:13.907Z,66.55
2023-03-06T03:57:49.688Z,66.80
2023-03-06T03:58:23.388Z,66.68
2023-03-06T03:58:57.170Z,66.73
2023-03-06T03:59:32.580Z,66.67
2023-03-06T04:00:20.257Z,66.75
2023-03-06T04:01:00.247Z,66.60
2023-03-06T04:01:34.302Z,66.63
2023-03-06T04:02:08.064Z,66.69
2023-03-06T04:02:46.758Z,66.78
2023-03-06T04:03:27.742Z,66.57
2023-03-06T04:04:01.652Z,66.86
2023-03-06T04:04:35.456Z,66.80
2023-03-06T04:05:09.743Z,66.93
2023-03-06T04:05:43.467Z,66.63
2023-03-06T04:06:18.620Z,66.64
2023-03-06T04:06:52.357Z,67.02
2023-03-06T04:07:26.192Z,66.87
2023-03-06T04:08:02.658Z,66.89
2023-03-06T04:08:36.866Z,66.87
2023-03-06T04:09:10.498Z,66.91
2023-03-06T04:09:44.489Z,66.89
2023-03-06T04:10:18.665Z,66.68
2023-03-06T04:10:54.713Z,66.78
2023-03-06T04:11:28.668Z,66.96
2023-03-06T04:12:02.244Z,66.85
2023-03-06T04:12:37.693Z,66.72
2023-03-06T04:13:11.360Z,66.72
2023-03-06T04:13:48.258Z,66.79
2023-03-06T04:14:22.802Z,66.66
2023-03-06T04:14:56.366Z,66.90
2023-03-06T04:15:30.030Z,66.82
2023-03-06T04:16:03.833Z,66.91
2023-03-06T04:16:38.420Z,66.89
2023-03-06T04:17:12.834Z,66.81
2023-03-06T04:17:46.377Z,66.72
2023-03-06T04:18:23.032Z,66.96
2023-03-06T04:18:56.587Z,66.74
2023-03-06T04:19:30.241Z,66.85
2023-03-06T04:20:05.176Z,67.02
2023-03-06T04:20:39.467Z,66.95
2023-03-06T04:21:13.184Z,67.22
2023-03-06T04:21:47.021Z,66.83
2023-03-06T04:22:20.648Z,67.05
2023-03-06T04:22:54.277Z,67.15
2023-03-06T04:23:28.139Z,67.04
2023-03-06T04:24:01.708Z,67.24
2023-03-06T04:24:35.489Z,67.10
2023-03-06T04:25:09.693Z,66.90
2023-03-06T04:25:43.254Z,67.04
2023-03-06T04:26:17.552Z,67.03
2023-03-06T04:26:51.163Z,67.13
2023-03-06T04:27:24.849Z,67.19
2023-03-06T04:27:58.941Z,67.23
2023-03-06T04:28:32.735Z,66.96
2023-03-06T04:29:06.557Z,67.25
2023-03-06T04:29:40.138Z,67.20
2023-03-06T04:30:13.837Z,67.34
2023-03-06T04:30:47.531Z,67.19
2023-03-06T04:31:21.348Z,67.23
2023-03-06T04:31:55.252Z,67.37
2023-03-06T04:32:29.015Z,67.18
2023-03-06T04:33:03.305Z,67.41
2023-03-06T04:33:36.786Z,67.06
2023-03-06T04:34:10.537Z,67.15
2023-03-06T04:34:43.957Z,67.19
2023-03-06T04:35:17.622Z,67.25
2023-03-06T04:36:07.415Z,67.33
2023-03-06T04:36:45.304Z,67.16
2023-03-06T04:37:25.971Z,67.13
2023-03-06T04:37:59.961Z,67.05
2023-03-06T04:38:35.247Z,67.20
2023-03-06T04:39:10.265Z,67.09
2023-03-06T04:39:43.960Z,67.21
2023-03-06T04:40:23.301Z,67.07
2023-03-06T04:40:57.238Z,67.05
2023-03-06T04:41:31.059Z,66.85
2023-03-06T04:42:05.017Z,67.20
2023-03-06T04:42:38.587Z,67.11
2023-03-06T04:43:12.157Z,67.23
2023-03-06T04:43:46.476Z,67.22
2023-03-06T04:44:20.094Z,67.10
2023-03-06T04:44:54.224Z,67.17
2023-03-06T04:45:29.221Z,67.05
2023-03-06T04:46:03.146Z,66.97
2023-03-06T04:46:37.270Z,66.97
2023-03-06T04:47:13.737Z,67.02
2023-03-06T04:47:47.638Z,66.85
2023-03-06T04:48:21.442Z,67.00
2023-03-06T04:48:57.838Z,66.90
2023-03-06T04:49:31.534Z,66.76
2023-03-06T04:50:05.648Z,66.65
2023-03-06T04:50:40.899Z,66.75
2023-03-06T04:51:16.539Z,66.64
2023-03-06T04:51:50.393Z,66.88
2023-03-06T04:52:27.918Z,66.74
2023-03-06T04:53:05.040Z,67.00
2023-03-06T04:53:38.632Z,66.84
2023-03-06T04:54:12.335Z,66.67
2023-03-06T04:54:46.422Z,66.62
2023-03-06T04:55:21.412Z,66.69
2023-03-06T04:55:55.167Z,66.74
2023-03-06T04:56:28.852Z,66.85
2023-03-06T04:57:05.486Z,66.64
2023-03-06T04:57:40.772Z,66.58
2023-03-06T04:58:15.197Z,66.51
2023-03-06T04:58:50.868Z,66.65
2023-03-06T04:59:29.733Z,66.76
2023-03-06T05:00:10.511Z,66.60
2023-03-06T05:00:44.333Z,66.56
2023-03-06T05:01:18.743Z,66.84
2023-03-06T05:01:52.741Z,66.93
2023-03-06T05:02:26.479Z,67.07
2023-03-06T05:03:03.914Z,67.03
2023-03-06T05:03:38.349Z,67.07
2023-03-06T05:04:11.911Z,67.24
2023-03-06T05:04:45.509Z,67.39
2023-03-06T05:05:20.573Z,67.29
2023-03-06T05:05:54.252Z,67.35
2023-03-06T05:06:33.783Z,67.51
2023-03-06T05:07:07.574Z,67.56
2023-03-06T05:07:42.201Z,67.65
2023-03-06T05:08:18.034Z,67.79
2023-03-06T05:08:51.990Z,67.69
2023-03-06T05:09:25.557Z,67.80
2023-03-06T05:10:00.720Z,67.91
2023-03-06T05:10:34.617Z,67.75
2023-03-06T05:11:08.359Z,67.59
2023-03-06T05:11:41.928Z,67.55
2023-03-06T05:12:15.689Z,67.69
2023-03-06T05:12:49.521Z,67.78
2023-03-06T05:13:23.283Z,67.54
2023-03-06T05:13:57.035Z,67.72
2023-03-06T05:14:31.747Z,67.90
2023-03-06T05:15:06.608Z,67.60
2023-03-06T05:15:41.075Z,67.30
2023-03-06T05:16:14.814Z,67.45
2023-03-06T05:16:48.803Z,67.07
2023-03-06T05:17:22.586Z,67.55
2023-03-06T05:17:56.929Z,67.56
2023-03-06T05:18:31.438Z,67.72
2023-03-06T05:19:05.272Z,67.66
2023-03-06T05:19:40.333Z,67.75
2023-03-06T05:20:15.442Z,67.85
2023-03-06T05:20:49.162Z,67.49
2023-03-06T05:21:22.950Z,67.67
2023-03-06T05:21:56.648Z,67.75
2023-03-06T05:22:30.458Z,67.81
2023-03-06T05:23:04.068Z,67.83
2023-03-06T05:23:38.922Z,67.75
2023-03-06T05:24:12.666Z,67.70
2023-03-06T05:24:46.378Z,67.78
2023-03-06T05:25:20.225Z,67.88
2023-03-06T05:25:56.790Z,68.16
2023-03-06T05:26:30.676Z,67.90
2023-03-06T05:27:04.841Z,67.91
2023-03-06T05:27:39.380Z,68.01
2023-03-06T05:28:13.026Z,67.88
2023-03-06T05:28:46.725Z,67.91
2023-03-06T05:29:20.598Z,67.80
2023-03-06T05:29:55.581Z,67.55
2023-03-06T05:30:29.428Z,67.87
2023-03-06T05:31:03.572Z,67.89
2023-03-06T05:31:37.464Z,67.74
2023-03-06T05:32:11.950Z,67.93
2023-03-06T05:32:45.729Z,67.94
2023-03-06T05:33:19.441Z,67.75
2023-03-06T05:33:53.044Z,67.92
2023-03-06T05:34:29.135Z,67.98
2023-03-06T05:35:02.812Z,68.04
2023-03-06T05:35:36.690Z,68.05
2023-03-06T05:36:10.684Z,68.00
2023-03-06T05:36:44.755Z,68.06
2023-03-06T05:37:18.405Z,67.86
2023-03-06T05:37:52.380Z,68.05
2023-03-06T05:38:26.393Z,67.79
2023-03-06T05:39:00.128Z,67.83
2023-03-06T05:39:33.647Z,67.71
2023-03-06T05:40:09.730Z,67.81
2023-03-06T05:40:45.782Z,67.74
2023-03-06T05:41:19.415Z,67.83
2023-03-06T05:41:53.469Z,67.81
2023-03-06T05:42:31.222Z,67.72
2023-03-06T05:43:05.057Z,67.53
2023-03-06T05:43:38.848Z,67.43
2023-03-06T05:44:12.462Z,67.75
2023-03-06T05:44:46.333Z,67.82
2023-03-06T05:45:19.875Z,67.94
2023-03-06T05:46:04.357Z,68.00
2023-03-06T05:46:38.744Z,68.03
2023-03-06T05:47:13.161Z,68.19
2023-03-06T05:47:46.812Z,67.95
2023-03-06T05:48:20.382Z,67.67
2023-03-06T05:48:58.254Z,67.96
2023-03-06T05:49:34.330Z,67.93
2023-03-06T05:50:10.722Z,68.12
2023-03-06T05:50:44.436Z,68.27
2023-03-06T05:51:21.233Z,68.05
2023-03-06T05:51:55.131Z,68.06
2023-03-06T05:52:31.318Z,68.03
2023-03-06T05:53:07.098Z,68.23
2023-03-06T05:53:41.076Z,68.27
2023-03-06T05:54:14.914Z,68.30
2023-03-06T05:54:53.158Z,68.18
2023-03-06T05:55:26.914Z,68.09
2023-03-06T05:56:06.305Z,68.07
2023-03-06T05:56:42.735Z,68.26
2023-03-06T05:57:16.514Z,68.35
2023-03-06T05:57:52.925Z,68.16
2023-03-06T05:58:29.093Z,68.31
2023-03-06T05:59:04.603Z,68.07
2023-03-06T05:59:38.420Z,68.20
2023-03-06T06:00:13.443Z,68.22
2023-03-06T06:00:47.111Z,67.97
2023-03-06T06:01:25.678Z,67.84
2023-03-06T06:02:00.768Z,67.96
2023-03-06T06:02:34.517Z,67.90
2023-03-06T06:03:08.575Z,68.05
2023-03-06T06:03:45.992Z,67.96
2023-03-06T06:04:19.942Z,68.04
2023-03-06T06:04:53.554Z,68.07
2023-03-06T06:05:27.191Z,68.25
2023-03-06T06:06:05.006Z,68.16
2023-03-06T06:06:38.803Z,68.20
2023-03-06T06:07:18.730Z,67.98
2023-03-06T06:07:55.141Z,68.22
2023-03-06T06:08:28.815Z,67.86
2023-03-06T06:09:02.584Z,68.06
2023-03-06T06:09:36.767Z,67.93
2023-03-06T06:10:11.984Z,68.09
2023-03-06T06:10:46.721Z,68.07
2023-03-06T06:11:21.322Z,67.94
2023-03-06T06:11:58.106Z,68.18
2023-03-06T06:12:33.737Z,67.80
2023-03-06T06:13:07.642Z,68.02
2023-03-06T06:13:41.483Z,67.64
2023-03-06T06:14:15.281Z,67.63
2023-03-06T06:14:52.855Z,67.54
2023-03-06T06:15:30.250Z,67.65
2023-03-06T06:16:13.220Z,67.63
2023-03-06T06:16:48.943Z,67.63
2023-03-06T06:17:25.509Z,67.69
2023-03-06T06:18:02.350Z,67.74
2023-03-06T06:18:37.282Z,67.77
2023-03-06T06:19:20.526Z,67.74
2023-03-06T06:19:56.393Z,67.88
2023-03-06T06:20:35.323Z,67.85
2023-03-06T06:21:11.330Z,67.89
2023-03-06T06:21:47.256Z,67.85
2023-03-06T06:22:21.104Z,67.91
2023-03-06T06:22:59.581Z,67.81
2023-03-06T06:23:33.574Z,67.90
2023-03-06T06:24:07.463Z,67.89
2023-03-06T06:24:42.709Z,67.92
2023-03-06T06:25:16.589Z,67.85
2023-03-06T06:25:53.312Z,68.00
2023-03-06T06:26:27.025Z,67.78
2023-03-06T06:27:03.605Z,67.78
2023-03-06T06:27:40.770Z,67.88
2023-03-06T06:28:14.364Z,67.76
2023-03-06T06:28:47.873Z,67.90
2023-03-06T06:29:22.832Z,67.85
2023-03-06T06:29:56.593Z,67.96
2023-03-06T06:30:31.077Z,67.73
2023-03-06T06:31:12.758Z,68.01
2023-03-06T06:31:46.658Z,67.73
2023-03-06T06:32:20.461Z,67.98
2023-03-06T06:32:54.027Z,67.72
2023-03-06T06:33:27.809Z,67.84
2023-03-06T06:34:01.604Z,67.70
2023-03-06T06:34:35.467Z,67.62
2023-03-06T06:35:11.778Z,67.69
2023-03-06T06:35:45.419Z,67.74
2023-03-06T06:36:21.082Z,67.77
2023-03-06T06:36:56.601Z,67.55
2023-03-06T06:37:30.743Z,67.59
2023-03-06T06:38:04.335Z,67.64
2023-03-06T06:38:37.981Z,67.36
2023-03-06T06:39:15.534Z,67.59
2023-03-06T06:39:49.192Z,67.61
2023-03-06T06:40:24.571Z,67.46
2023-03-06T06:41:30.678Z,67.48
2023-03-06T06:42:09.669Z,67.47
2023-03-06T06:42:51.679Z,67.62
2023-03-06T06:43:25.282Z,67.64
2023-03-06T06:43:59.424Z,67.70
2023-03-06T06:44:33.057Z,67.53
2023-03-06T06:45:08.287Z,67.53
2023-03-06T06:45:44.372Z,67.71
2023-03-06T06:46:53.335Z,67.80
2023-03-06T06:47:23.029Z,67.81
2023-03-06T06:47:57.980Z,67.66
2023-03-06T06:48:31.667Z,67.62
2023-03-06T06:49:05.907Z,67.72
2023-03-06T06:49:39.912Z,67.57
2023-03-06T06:50:14.581Z,67.48
2023-03-06T06:50:55.914Z,67.50
2023-03-06T06:51:33.862Z,67.32
2023-03-06T06:52:07.839Z,67.37
2023-03-06T06:52:51.152Z,67.26
2023-03-06T06:53:28.053Z,67.35
2023-03-06T06:54:05.813Z,67.19
2023-03-06T06:54:39.499Z,67.25
2023-03-06T06:55:13.796Z,67.36
2023-03-06T06:55:47.563Z,67.36
2023-03-06T06:56:21.223Z,67.42
2023-03-06T06:56:55.043Z,67.48
2023-03-06T06:57:28.774Z,67.21
2023-03-06T06:58:05.474Z,67.23
2023-03-06T06:58:39.192Z,67.50
2023-03-06T06:59:17.530Z,67.19
2023-03-06T06:59:53.394Z,67.31
2023-03-06T07:00:27.889Z,67.22
2023-03-06T07:01:10.141Z,67.16
2023-03-06T07:01:44.949Z,67.29
2023-03-06T07:02:18.723Z,66.97
2023-03-06T07:02:52.430Z,66.83
2023-03-06T07:03:26.002Z,67.06
2023-03-06T07:03:59.462Z,67.20
2023-03-06T07:04:33.197Z,67.02
2023-03-06T07:05:07.435Z,66.95
2023-03-06T07:05:41.093Z,66.80
2023-03-06T07:06:14.896Z,66.76
2023-03-06T07:06:48.468Z,66.80
2023-03-06T07:07:21.857Z,66.54
2023-03-06T07:07:55.461Z,66.51
2023-03-06T07:08:29.346Z,66.32
2023-03-06T07:09:02.826Z,66.25
2023-03-06T07:09:39.954Z,66.39
2023-03-06T07:10:16.197Z,66.50
2023-03-06T07:10:49.656Z,66.43
2023-03-06T07:11:24.024Z,66.74
2023-03-06T07:11:58.394Z,66.46
2023-03-06T07:12:33.088Z,66.35
2023-03-06T07:13:06.602Z,66.16
2023-03-06T07:13:42.814Z,66.58
2023-03-06T07:14:16.429Z,66.35
2023-03-06T07:14:49.978Z,66.39
2023-03-06T07:15:26.999Z,66.68
2023-03-06T07:16:03.198Z,66.37
2023-03-06T07:16:37.235Z,66.44
2023-03-06T07:17:10.855Z,66.26
2023-03-06T07:17:44.644Z,66.22
2023-03-06T07:18:18.266Z,66.28
2023-03-06T07:18:51.779Z,66.32
2023-03-06T07:19:26.548Z,66.11
2023-03-06T07:20:00.297Z,66.18
2023-03-06T07:20:33.919Z,66.17
2023-03-06T07:21:07.583Z,66.03
2023-03-06T07:21:41.487Z,66.14
2023-03-06T07:22:15.071Z,65.99
2023-03-06T07:22:51.659Z,65.83
2023-03-06T07:23:26.755Z,65.84
2023-03-06T07:24:02.939Z,65.76
2023-03-06T07:24:38.903Z,65.69
2023-03-06T07:25:12.512Z,65.51
2023-03-06T07:25:46.422Z,65.43
2023-03-06T07:26:19.844Z,65.34
2023-03-06T07:26:53.647Z,65.45
2023-03-06T07:27:27.411Z,65.35
2023-03-06T07:28:01.232Z,65.33
2023-03-06T07:28:49.809Z,65.36
2023-03-06T07:29:25.077Z,65.33
2023-03-06T07:29:58.861Z,65.56
2023-03-06T07:30:32.549Z,65.36
2023-03-06T07:31:10.424Z,65.66
2023-03-06T07:31:44.561Z,65.41
2023-03-06T07:32:18.535Z,65.35
2023-03-06T07:32:56.922Z,65.28
2023-03-06T07:33:30.593Z,65.24
2023-03-06T07:34:05.087Z,65.26
2023-03-06T07:34:38.986Z,65.39
2023-03-06T07:35:20.505Z,65.33
2023-03-06T07:35:54.511Z,65.59
2023-03-06T07:36:28.427Z,65.00
2023-03-06T07:37:02.128Z,65.22